Time,TemperatureF,DewpointF,PressureIn,WindDirection,WindDirectionDegrees,WindSpeedMPH,WindSpeedGustMPH,Humidity,HourlyPrecipIn,Conditions,Clouds,dailyrainin,SoftwareType,DateUTC
2013-12-27 00:00:00,56.8,18.4,30.20,NW,311,4.3,4.8,22,0.00,,CLR,0.00,VWS V14.01,2013-12-27 08:00:00,
2013-12-27 00:10:00,56.5,15.9,30.20,NNW,331,5.4,5.4,20,0.00,,CLR,0.00,VWS V14.01,2013-12-27 08:10:00,
2013-12-27 00:20:00,56.1,15.6,30.17,NW,322,3.2,5.9,20,0.00,,CLR,0.00,VWS V14.01,2013-12-27 08:20:00,
2013-12-27 00:30:00,55.8,15.3,30.17,NNW,333,4.3,4.8,20,0.00,,CLR,0.00,VWS V14.01,2013-12-27 08:30:00,
2013-12-27 00:40:00,55.6,15.2,30.17,North,11,0.0,7.5,20,0.00,,CLR,0.00,VWS V14.01,2013-12-27 08:40:00,
2013-12-27 00:50:00,55.6,15.2,30.17,NW,325,4.8,4.8,20,0.00,,CLR,0.00,VWS V14.01,2013-12-27 08:50:00,
2013-12-27 01:00:00,55.6,15.2,30.17,NNW,339,2.7,5.9,20,0.00,,CLR,0.00,VWS V14.01,2013-12-27 09:00:00,
2013-12-27 01:10:00,55.8,15.3,30.17,NNW,333,3.2,6.4,20,0.00,,CLR,0.00,VWS V14.01,2013-12-27 09:10:00,
2013-12-27 01:20:00,55.9,15.5,30.17,NW,320,3.8,7.0,20,0.00,,CLR,0.00,VWS V14.01,2013-12-27 09:20:00,
2013-12-27 01:30:00,55.8,15.3,30.17,NNW,331,0.0,4.8,20,0.00,,CLR,0.00,VWS V14.01,2013-12-27 09:30:00,
2013-12-27 01:40:00,55.6,17.4,30.17,North,356,4.8,4.8,22,0.00,,CLR,0.00,VWS V14.01,2013-12-27 09:40:00,
2013-12-27 01:50:00,55.0,14.7,30.17,North,5,3.8,6.4,20,0.00,,CLR,0.00,VWS V14.01,2013-12-27 09:50:00,
2013-12-27 02:00:00,54.9,14.6,30.17,North,356,4.3,4.8,20,0.00,,CLR,0.00,VWS V14.01,2013-12-27 10:00:00,
2013-12-27 02:10:00,54.9,14.6,30.17,North,6,4.8,7.0,20,0.00,,CLR,0.00,VWS V14.01,2013-12-27 10:10:00,
2013-12-27 02:20:00,55.0,14.7,30.17,North,6,4.8,6.4,20,0.00,,CLR,0.00,VWS V14.01,2013-12-27 10:20:00,
2013-12-27 02:30:00,55.0,14.7,30.17,North,8,5.4,6.4,20,0.00,,CLR,0.00,VWS V14.01,2013-12-27 10:30:00,
2013-12-27 02:40:00,55.4,15.0,30.17,North,6,3.2,7.0,20,0.00,,CLR,0.00,VWS V14.01,2013-12-27 10:40:00,
2013-12-27 02:50:00,55.9,15.5,30.17,NNE,15,6.4,7.5,20,0.00,,CLR,0.00,VWS V14.01,2013-12-27 10:50:00,
2013-12-27 03:00:00,56.1,15.6,30.17,North,4,4.3,7.0,20,0.00,,CLR,0.00,VWS V14.01,2013-12-27 11:00:00,
2013-12-27 03:10:00,55.9,15.5,30.17,North,351,0.0,4.3,20,0.00,,CLR,0.00,VWS V14.01,2013-12-27 11:10:00,
2013-12-27 03:20:00,55.6,15.2,30.17,NNE,12,4.8,4.8,20,0.00,,CLR,0.00,VWS V14.01,2013-12-27 11:20:00,
2013-12-27 03:30:00,54.9,14.6,30.17,North,1,3.2,5.9,20,0.00,,CLR,0.00,VWS V14.01,2013-12-27 11:30:00,
2013-12-27 03:40:00,54.5,14.3,30.17,NNE,22,0.0,4.8,20,0.00,,CLR,0.00,VWS V14.01,2013-12-27 11:40:00,
2013-12-27 03:50:00,54.1,14.0,30.17,North,0,0.0,5.9,20,0.00,,CLR,0.00,VWS V14.01,2013-12-27 11:50:00,
2013-12-27 04:00:00,54.0,13.8,30.17,North,0,2.7,3.2,20,0.00,,CLR,0.00,VWS V14.01,2013-12-27 12:00:00,
2013-12-27 04:10:00,53.4,14.5,30.17,North,1,0.0,3.8,21,0.00,,CLR,0.00,VWS V14.01,2013-12-27 12:10:00,
2013-12-27 04:20:00,53.1,14.2,30.17,North,0,0.0,4.8,21,0.00,,CLR,0.00,VWS V14.01,2013-12-27 12:20:00,
2013-12-27 04:30:00,52.9,14.0,30.17,North,0,0.0,0.0,21,0.00,,CLR,0.00,VWS V14.01,2013-12-27 12:30:00,
2013-12-27 04:40:00,52.5,15.8,30.17,North,0,3.8,3.8,23,0.00,,CLR,0.00,VWS V14.01,2013-12-27 12:40:00,
2013-12-27 04:50:00,52.2,15.5,30.17,North,0,3.2,4.8,23,0.00,,CLR,0.00,VWS V14.01,2013-12-27 12:50:00,
2013-12-27 05:00:00,52.0,15.4,30.17,NNW,346,4.8,4.8,23,0.00,,CLR,0.00,VWS V14.01,2013-12-27 13:00:00,
2013-12-27 05:10:00,51.8,15.2,30.17,North,8,3.8,7.0,23,0.00,,CLR,0.00,VWS V14.01,2013-12-27 13:10:00,
2013-12-27 05:20:00,51.8,15.2,30.17,NNE,22,2.7,4.3,23,0.00,,CLR,0.00,VWS V14.01,2013-12-27 13:20:00,
2013-12-27 05:30:00,52.0,15.4,30.17,North,10,4.8,6.4,23,0.00,,CLR,0.00,VWS V14.01,2013-12-27 13:30:00,
2013-12-27 05:40:00,52.3,15.7,30.17,North,10,6.4,8.6,23,0.00,,CLR,0.00,VWS V14.01,2013-12-27 13:40:00,
2013-12-27 05:50:00,53.6,16.7,30.17,NNE,20,6.4,9.1,23,0.00,,CLR,0.00,VWS V14.01,2013-12-27 13:50:00,
2013-12-27 06:00:00,54.3,17.3,30.17,North,1,3.8,7.5,23,0.00,,CLR,0.00,VWS V14.01,2013-12-27 14:00:00,
2013-12-27 06:10:00,54.3,17.3,30.17,NNE,14,3.2,6.4,23,0.00,,CLR,0.00,VWS V14.01,2013-12-27 14:10:00,
2013-12-27 06:20:00,54.1,17.2,30.17,North,0,2.7,4.3,23,0.00,,CLR,0.00,VWS V14.01,2013-12-27 14:20:00,
2013-12-27 06:30:00,53.8,16.9,30.17,North,8,4.8,7.5,23,0.00,,CLR,0.00,VWS V14.01,2013-12-27 14:30:00,
2013-12-27 06:40:00,53.6,13.5,30.17,North,1,0.0,5.9,20,0.00,,CLR,0.00,VWS V14.01,2013-12-27 14:40:00,
2013-12-27 06:50:00,53.6,13.5,30.17,North,351,3.2,7.0,20,0.00,,CLR,0.00,VWS V14.01,2013-12-27 14:50:00,
2013-12-27 07:00:00,53.6,13.5,30.17,North,356,0.0,6.4,20,0.00,,CLR,0.00,VWS V14.01,2013-12-27 15:00:00,
2013-12-27 07:10:00,53.8,13.7,30.17,North,351,5.9,7.0,20,0.00,,CLR,0.00,VWS V14.01,2013-12-27 15:10:00,
2013-12-27 07:20:00,54.3,14.1,30.17,North,356,5.4,7.0,20,0.00,,CLR,0.00,VWS V14.01,2013-12-27 15:20:00,
2013-12-27 07:30:00,54.9,14.6,30.17,North,2,5.4,7.0,20,0.00,,CLR,0.00,VWS V14.01,2013-12-27 15:30:00,
2013-12-27 07:40:00,55.6,15.2,30.17,NNE,14,7.5,7.5,20,0.00,,CLR,0.00,VWS V14.01,2013-12-27 15:40:00,
2013-12-27 07:50:00,56.5,15.9,30.20,NNE,26,6.4,7.5,20,0.00,,CLR,0.00,VWS V14.01,2013-12-27 15:50:00,
2013-12-27 08:00:00,58.5,16.4,30.20,NNE,12,7.0,12.1,19,0.00,,CLR,0.00,VWS V14.01,2013-12-27 16:00:00,
2013-12-27 08:10:00,60.1,17.7,30.20,NNE,20,9.7,9.9,19,0.00,,CLR,0.00,VWS V14.01,2013-12-27 16:10:00,
2013-12-27 08:20:00,61.5,18.9,30.20,NNE,27,6.4,12.1,19,0.00,,CLR,0.00,VWS V14.01,2013-12-27 16:20:00,
2013-12-27 08:30:00,61.3,21.1,30.20,NNE,33,4.3,9.1,21,0.00,,CLR,0.00,VWS V14.01,2013-12-27 16:30:00,
2013-12-27 08:40:00,61.0,20.8,30.20,NE,47,3.8,5.9,21,0.00,,CLR,0.00,VWS V14.01,2013-12-27 16:40:00,
2013-12-27 08:50:00,61.2,20.9,30.20,NNE,15,9.7,9.7,21,0.00,,CLR,0.00,VWS V14.01,2013-12-27 16:50:00,
2013-12-27 09:00:00,62.8,22.3,30.20,NNE,31,7.0,10.5,21,0.00,,CLR,0.00,VWS V14.01,2013-12-27 17:00:00,
2013-12-27 09:10:00,64.8,22.8,30.20,North,351,6.4,11.5,20,0.00,,CLR,0.00,VWS V14.01,2013-12-27 17:10:00,
2013-12-27 09:20:00,66.2,24.0,30.20,North,351,13.2,13.2,20,0.00,,CLR,0.00,VWS V14.01,2013-12-27 17:20:00,
2013-12-27 09:30:00,66.9,24.6,30.20,ENE,63,4.8,13.2,20,0.00,,CLR,0.00,VWS V14.01,2013-12-27 17:30:00,
2013-12-27 09:40:00,67.1,24.7,30.20,ENE,68,4.8,7.0,20,0.00,,CLR,0.00,VWS V14.01,2013-12-27 17:40:00,
2013-12-27 09:50:00,67.1,27.0,30.20,ENE,71,4.3,7.0,22,0.00,,CLR,0.00,VWS V14.01,2013-12-27 17:50:00,
2013-12-27 10:00:00,67.3,27.2,30.20,ENE,74,4.8,5.9,22,0.00,,CLR,0.00,VWS V14.01,2013-12-27 18:00:00,
2013-12-27 10:10:00,67.6,28.5,30.17,ENE,69,4.8,5.9,23,0.00,,CLR,0.00,VWS V14.01,2013-12-27 18:10:00,
2013-12-27 10:20:00,68.4,28.1,30.17,NNE,27,3.2,6.4,22,0.00,,CLR,0.00,VWS V14.01,2013-12-27 18:20:00,
2013-12-27 10:30:00,69.3,28.8,30.17,North,1,0.0,4.8,22,0.00,,CLR,0.00,VWS V14.01,2013-12-27 18:30:00,
2013-12-27 10:40:00,70.9,30.2,30.17,NNE,23,4.3,7.0,22,0.00,,CLR,0.00,VWS V14.01,2013-12-27 18:40:00,
2013-12-27 10:50:00,72.9,30.7,30.17,NNE,29,0.0,4.8,21,0.00,,CLR,0.00,VWS V14.01,2013-12-27 18:50:00,
2013-12-27 11:00:00,74.8,28.5,30.17,North,8,2.7,3.8,18,0.00,,CLR,0.00,VWS V14.01,2013-12-27 19:00:00,
2013-12-27 11:10:00,76.6,30.0,30.17,NNW,331,0.0,4.3,18,0.00,,CLR,0.00,VWS V14.01,2013-12-27 19:10:00,
2013-12-27 11:20:00,77.9,31.0,30.17,WSW,247,4.8,7.5,18,0.00,,CLR,0.00,VWS V14.01,2013-12-27 19:20:00,
2013-12-27 11:30:00,78.3,31.3,30.17,SW,219,3.8,7.5,18,0.00,,CLR,0.00,VWS V14.01,2013-12-27 19:30:00,
2013-12-27 11:40:00,79.0,30.5,30.14,SSW,199,3.8,6.4,17,0.00,,CLR,0.00,VWS V14.01,2013-12-27 19:40:00,
2013-12-27 11:50:00,79.3,30.8,30.14,SW,221,2.7,8.1,17,0.00,,CLR,0.00,VWS V14.01,2013-12-27 19:50:00,
2013-12-27 12:00:00,79.7,28.0,30.14,West,263,3.2,7.5,15,0.00,,CLR,0.00,VWS V14.01,2013-12-27 20:00:00,
2013-12-27 12:10:00,80.4,28.6,30.14,SW,236,2.7,7.5,15,0.00,,CLR,0.00,VWS V14.01,2013-12-27 20:10:00,
2013-12-27 12:20:00,81.3,32.4,30.14,West,275,5.9,7.5,17,0.00,,CLR,0.00,VWS V14.01,2013-12-27 20:20:00,
2013-12-27 12:30:00,82.0,33.0,30.14,SW,227,7.0,9.1,17,0.00,,CLR,0.00,VWS V14.01,2013-12-27 20:30:00,
2013-12-27 12:40:00,81.9,28.0,30.14,WSW,241,4.8,9.7,14,0.00,,CLR,0.00,VWS V14.01,2013-12-27 20:40:00,
2013-12-27 12:50:00,81.7,27.9,30.11,SW,225,9.1,9.9,14,0.00,,CLR,0.00,VWS V14.01,2013-12-27 20:50:00,
2013-12-27 13:00:00,82.4,31.8,30.11,SW,218,6.4,9.7,16,0.00,,CLR,0.00,VWS V14.01,2013-12-27 21:00:00,
2013-12-27 13:10:00,83.5,32.6,30.11,SW,234,3.2,8.1,16,0.00,,CLR,0.00,VWS V14.01,2013-12-27 21:10:00,
2013-12-27 13:20:00,84.0,29.8,30.11,South,182,3.2,7.5,14,0.00,,CLR,0.00,VWS V14.01,2013-12-27 21:20:00,
2013-12-27 13:30:00,84.6,28.4,30.11,SW,231,4.8,7.5,13,0.00,,CLR,0.00,VWS V14.01,2013-12-27 21:30:00,
2013-12-27 13:40:00,84.7,28.5,30.11,WSW,237,4.8,7.0,13,0.00,,CLR,0.00,VWS V14.01,2013-12-27 21:40:00,
2013-12-27 13:50:00,84.7,28.5,30.08,SW,221,0.0,8.1,13,0.00,,CLR,0.00,VWS V14.01,2013-12-27 21:50:00,
2013-12-27 14:00:00,84.6,28.4,30.08,West,264,5.9,7.5,13,0.00,,CLR,0.00,VWS V14.01,2013-12-27 22:00:00,
2013-12-27 14:10:00,84.7,28.5,30.08,SW,236,4.3,7.5,13,0.00,,CLR,0.00,VWS V14.01,2013-12-27 22:10:00,
2013-12-27 14:20:00,84.6,28.4,30.08,WSW,246,4.8,9.1,13,0.00,,CLR,0.00,VWS V14.01,2013-12-27 22:20:00,
2013-12-27 14:30:00,84.6,28.4,30.08,WSW,256,4.8,8.1,13,0.00,,CLR,0.00,VWS V14.01,2013-12-27 22:30:00,
2013-12-27 14:40:00,84.2,28.1,30.08,SW,226,4.3,7.5,13,0.00,,CLR,0.00,VWS V14.01,2013-12-27 22:40:00,
2013-12-27 14:50:00,83.5,29.3,30.08,SW,218,4.3,9.7,14,0.00,,CLR,0.00,VWS V14.01,2013-12-27 22:50:00,
2013-12-27 15:00:00,81.7,27.9,30.08,WSW,252,7.5,9.7,14,0.00,,CLR,0.00,VWS V14.01,2013-12-27 23:00:00,
2013-12-27 15:10:00,80.6,27.0,30.08,West,262,3.8,8.1,14,0.00,,CLR,0.00,VWS V14.01,2013-12-27 23:10:00,
2013-12-27 15:20:00,79.3,27.7,30.08,WSW,254,3.2,6.4,15,0.00,,CLR,0.00,VWS V14.01,2013-12-27 23:20:00,
2013-12-27 15:30:00,78.3,26.9,30.08,West,276,4.3,6.4,15,0.00,,CLR,0.00,VWS V14.01,2013-12-27 23:30:00,
2013-12-27 15:40:00,77.2,26.0,30.08,WSW,257,4.3,6.4,15,0.00,,CLR,0.00,VWS V14.01,2013-12-27 23:40:00,
2013-12-27 15:50:00,75.9,29.4,30.08,West,266,0.0,7.5,18,0.00,,CLR,0.00,VWS V14.01,2013-12-27 23:50:00,
2013-12-27 16:00:00,74.5,28.2,30.08,West,263,3.8,4.8,18,0.00,,CLR,0.00,VWS V14.01,2013-12-28 00:00:00,
2013-12-27 16:10:00,73.6,27.5,30.08,WSW,240,0.0,3.8,18,0.00,,CLR,0.00,VWS V14.01,2013-12-28 00:10:00,
2013-12-27 16:20:00,72.7,28.1,30.08,WSW,245,0.0,3.2,19,0.00,,CLR,0.00,VWS V14.01,2013-12-28 00:20:00,
2013-12-27 16:30:00,72.1,27.6,30.08,WSW,245,0.0,0.0,19,0.00,,CLR,0.00,VWS V14.01,2013-12-28 00:30:00,
2013-12-27 16:40:00,71.4,30.6,30.08,WSW,245,0.0,0.0,22,0.00,,CLR,0.00,VWS V14.01,2013-12-28 00:40:00,
2013-12-27 16:50:00,70.5,29.9,30.08,WSW,245,0.0,3.2,22,0.00,,CLR,0.00,VWS V14.01,2013-12-28 00:50:00,
2013-12-27 17:00:00,69.6,30.2,30.08,NW,312,0.0,3.2,23,0.00,,CLR,0.00,VWS V14.01,2013-12-28 01:00:00,
2013-12-27 17:10:00,68.5,30.4,30.08,NW,312,0.0,0.0,24,0.00,,CLR,0.00,VWS V14.01,2013-12-28 01:10:00,
2013-12-27 17:20:00,66.6,30.6,30.08,NW,312,4.8,4.8,26,0.00,,CLR,0.00,VWS V14.01,2013-12-28 01:20:00,
2013-12-27 17:30:00,65.7,30.8,30.08,North,11,3.8,4.8,27,0.00,,CLR,0.00,VWS V14.01,2013-12-28 01:30:00,
2013-12-27 17:40:00,64.6,29.9,30.08,North,10,3.8,4.8,27,0.00,,CLR,0.00,VWS V14.01,2013-12-28 01:40:00,
2013-12-27 17:50:00,63.9,29.3,30.08,NE,45,3.2,4.3,27,0.00,,CLR,0.00,VWS V14.01,2013-12-28 01:50:00,
2013-12-27 18:00:00,63.1,29.5,30.08,NE,45,0.0,4.3,28,0.00,,CLR,0.00,VWS V14.01,2013-12-28 02:00:00,
2013-12-27 18:10:00,62.6,29.9,30.08,NE,44,0.0,4.3,29,0.00,,CLR,0.00,VWS V14.01,2013-12-28 02:10:00,
2013-12-27 18:20:00,62.2,29.6,30.11,NE,44,0.0,0.0,29,0.00,,CLR,0.00,VWS V14.01,2013-12-28 02:20:00,
2013-12-27 18:30:00,61.9,30.1,30.11,NE,44,0.0,0.0,30,0.00,,CLR,0.00,VWS V14.01,2013-12-28 02:30:00,
2013-12-27 18:40:00,61.7,30.8,30.11,NE,44,0.0,0.0,31,0.00,,CLR,0.00,VWS V14.01,2013-12-28 02:40:00,
2013-12-27 18:50:00,61.3,31.2,30.11,NE,44,0.0,0.0,32,0.00,,CLR,0.00,VWS V14.01,2013-12-28 02:50:00,
2013-12-27 19:00:00,61.0,32.4,30.11,NE,44,0.0,0.0,34,0.00,,CLR,0.00,VWS V14.01,2013-12-28 03:00:00,
2013-12-27 19:10:00,60.4,32.0,30.08,NE,44,0.0,3.2,34,0.00,,CLR,0.00,VWS V14.01,2013-12-28 03:10:00,
2013-12-27 19:20:00,60.1,31.6,30.08,NE,44,0.0,0.0,34,0.00,,CLR,0.00,VWS V14.01,2013-12-28 03:20:00,
2013-12-27 19:30:00,59.9,31.5,30.08,NE,44,0.0,0.0,34,0.00,,CLR,0.00,VWS V14.01,2013-12-28 03:30:00,
2013-12-27 19:40:00,59.7,30.6,30.08,NE,44,0.0,3.2,33,0.00,,CLR,0.00,VWS V14.01,2013-12-28 03:40:00,
2013-12-27 19:50:00,59.4,30.3,30.11,NE,44,3.2,4.3,33,0.00,,CLR,0.00,VWS V14.01,2013-12-28 03:50:00,
2013-12-27 20:00:00,59.2,29.4,30.11,NE,44,0.0,3.8,32,0.00,,CLR,0.00,VWS V14.01,2013-12-28 04:00:00,
2013-12-27 20:10:00,58.8,29.0,30.11,NNE,13,4.3,4.3,32,0.00,,CLR,0.00,VWS V14.01,2013-12-28 04:10:00,
2013-12-27 20:20:00,58.6,27.3,30.11,NNE,13,4.3,6.4,30,0.00,,CLR,0.00,VWS V14.01,2013-12-28 04:20:00,
2013-12-27 20:30:00,58.6,26.5,30.11,NNE,20,5.9,5.9,29,0.00,,CLR,0.00,VWS V14.01,2013-12-28 04:30:00,
2013-12-27 20:40:00,59.0,25.1,30.08,North,3,4.3,7.0,27,0.00,,CLR,0.00,VWS V14.01,2013-12-28 04:40:00,
2013-12-27 20:50:00,59.4,24.5,30.11,North,11,7.0,7.5,26,0.00,,CLR,0.00,VWS V14.01,2013-12-28 04:50:00,
2013-12-27 21:00:00,61.2,25.1,30.11,NNE,16,3.2,9.1,25,0.00,,CLR,0.00,VWS V14.01,2013-12-28 05:00:00,
2013-12-27 21:10:00,61.5,25.4,30.11,NNE,21,3.8,4.8,25,0.00,,CLR,0.00,VWS V14.01,2013-12-28 05:10:00,
2013-12-27 21:20:00,61.5,25.4,30.11,North,6,3.2,5.9,25,0.00,,CLR,0.00,VWS V14.01,2013-12-28 05:20:00,
2013-12-27 21:30:00,61.5,25.4,30.11,NNE,27,4.3,4.8,25,0.00,,CLR,0.00,VWS V14.01,2013-12-28 05:30:00,
2013-12-27 21:40:00,61.3,25.2,30.11,NE,55,3.2,4.8,25,0.00,,CLR,0.00,VWS V14.01,2013-12-28 05:40:00,
2013-12-27 21:50:00,61.3,25.2,30.11,NNE,21,4.8,4.8,25,0.00,,CLR,0.00,VWS V14.01,2013-12-28 05:50:00,
2013-12-27 22:00:00,61.9,25.7,30.11,North,8,6.4,7.5,25,0.00,,CLR,0.00,VWS V14.01,2013-12-28 06:00:00,
2013-12-27 22:10:00,63.1,25.8,30.08,North,2,5.9,9.1,24,0.00,,CLR,0.00,VWS V14.01,2013-12-28 06:10:00,
2013-12-27 22:20:00,63.9,26.4,30.11,NNE,22,6.4,9.9,24,0.00,,CLR,0.00,VWS V14.01,2013-12-28 06:20:00,
2013-12-27 22:30:00,64.4,25.8,30.11,NNE,20,9.7,9.7,23,0.00,,CLR,0.00,VWS V14.01,2013-12-28 06:30:00,
2013-12-27 22:40:00,64.9,26.3,30.11,North,356,7.5,9.7,23,0.00,,CLR,0.00,VWS V14.01,2013-12-28 06:40:00,
2013-12-27 22:50:00,65.5,26.7,30.08,NNE,14,6.4,9.7,23,0.00,,CLR,0.00,VWS V14.01,2013-12-28 06:50:00,
2013-12-27 23:00:00,65.8,27.0,30.08,NNE,16,4.8,9.1,23,0.00,,CLR,0.00,VWS V14.01,2013-12-28 07:00:00,
2013-12-27 23:10:00,66.0,27.2,30.08,North,7,9.1,12.1,23,0.00,,CLR,0.00,VWS V14.01,2013-12-28 07:10:00,
2013-12-27 23:20:00,66.0,23.8,30.08,NNE,13,9.1,9.7,20,0.00,,CLR,0.00,VWS V14.01,2013-12-28 07:20:00,
2013-12-27 23:30:00,66.4,24.1,30.08,North,356,6.4,9.7,20,0.00,,CLR,0.00,VWS V14.01,2013-12-28 07:30:00,
2013-12-27 23:40:00,66.4,24.1,30.08,North,351,7.5,10.5,20,0.00,,CLR,0.00,VWS V14.01,2013-12-28 07:40:00,
2013-12-27 23:50:00,66.6,24.3,30.08,NNE,16,7.5,10.5,20,0.00,,CLR,0.00,VWS V14.01,2013-12-28 07:50:00,